KR-0455 weather

Dayeong-dong Prjio Apartments Heliports
Busan, Busan Gwang'yeogsi, South Korea

Public forecast

Using degrees Celsius for public forecast. Weather courtesy of forecast.io.

METAR (pilot weather report)

Closest report is Gimhae International Airport, 8.4 nm (15.6 km) WNW. Retrieved 2019/08/21 13:00 UTC (2 hours ago):

RKPK 211300Z 15003KT 9000 FEW015 SCT040 BKN120 BKN200 26/24 Q1009

TAF (pilot weather forecast)

Closest forecast is Gimhae International Airport, 8.4 nm (15.6 km) WNW. Retrieved 2019/08/21 12:00 UTC (3 hours ago):

TAF RKPK 211100Z 2112/2218 18010KT 4800 -RA BR BKN015 BKN030 TN26/2121Z TX29/2206Z BECMG 2209/2210 9999 NSW SCT015 BKN030